Fish Lake Valley, Nevada Weather observations

Data are for 10 minute period ending at time listed.
 Day   Time    Ave.   Ave.  Ave.  Vector   Max.   Stn.    Total    Solar   Ave.  
  of    of     Air    Rel.  Wind   Wind    Wind   Baro.  Precip.   Rad.    Soil  
Year   Day     Temp.  Hum.  Speed  Dir.    Gust   Pres.                    Temp. 
2016   (PST)    F      %     mph   deg.    mph     mb.     in.     W/m2     F    
--------------------------------------------------------------------------------- 
  44    6:50   27.3    90    3.0   134      4.3   860.1    0.00      14    34.3  
  44    7:00   26.4    91    3.1   126      4.3   860.1    0.00      24    34.3  
  44    7:10   26.4    90    2.5   108      3.2   860.2    0.00      44    34.2  
  44    7:20   26.9    90    2.5   127      3.3   860.5    0.00      82    34.2  
  44    7:30   27.6    88    2.3   171      3.5   860.5    0.00     100    34.2  
  44    7:40   27.8    89    3.5   217      6.3   860.7    0.00     106    34.2  
  44    7:50   28.2    91    3.4   250      4.2   860.8    0.00     122    34.1  
  44    8:00   29.3    90    2.9   308      4.4   861.0    0.00     138    34.1  
  44    8:10   28.9    89    3.3   340      4.9   861.3    0.00     151    34.1  
  44    8:20   28.8    89    3.3   297      5.6   861.5    0.00     185    34.1  
  44    8:30   29.6    88    3.6   274      5.7   861.6    0.00     312    34.0  
  44    8:40   32.4    84    2.0   257      4.1   861.6    0.00     450    34.0  
  44    8:50   34.4    80    3.3   284      4.9   861.7    0.00     523    34.0  
  44    9:00   35.8    76    2.1   332      3.5   861.7    0.00     473    34.0  
  44    9:10   36.2    75    4.3    13      6.0   861.7    0.00     622    33.9  
  44    9:20   37.7    73    4.3   349      5.8   861.7    0.00     501    33.9  
  44    9:30   40.1    66    5.2   314      7.8   861.7    0.00     753    33.9  
  44    9:40   41.5    63    5.9   300      7.8   861.7    0.00     716    33.9  
  44    9:50   42.0    61    6.0   304      7.5   861.6    0.00     864    33.8  
  44   10:00   42.8    61    6.8   321      8.9   861.5    0.00     947    33.8  
  44   10:10   43.7    60    6.0   332      7.4   861.4    0.00    1081    33.8  
  44   10:20   45.0    58    6.9   337      9.2   861.4    0.00    1087    33.8  
  44   10:30   47.2    54    8.5   328     11.1   861.3    0.00    1201    33.7  
  44   10:40   47.9    51    8.7   328     10.9   861.2    0.00    1092    33.7  

Return to Fish Lake Valley, Nevada graphs page.


Western Regional Climate Center,wrcc@dri.edu